JES3387 SAZM-SAZB
Flight info
| Callsign | JES3387 |
|---|---|
| Flight time | 0h 44m |
| Altitude | 34000 |
| Route | SIRAN1C SIRAN DCT SIGUL UW32 DOTRI DOTRI1Q |
| Aircraft | A320/M-SDE3FGHIRWY/LB1 |
Departure
| Time | 2026-05-06 19:03 |
|---|---|
| Airport | Ástor Piazzola International Airport (SAZM) |
Arrival
| Time | 2026-05-06 19:48 |
|---|---|
| Airport | Comandante Espora Airport (SAZB) |
| Time | Latitude | Longitude | Altitude | Speed | Heading |
|---|---|---|---|---|---|
| 2026-05-06 18:36 | -37.93323 | -57.58082 | 48 ft | 0 kts | 303° |
| 2026-05-06 18:50 | -37.93326 | -57.58076 | 48 ft | 4 kts | 303° |
| 2026-05-06 18:50 | -37.93341 | -57.58048 | 47 ft | 4 kts | 303° |
| 2026-05-06 18:50 | -37.93356 | -57.58019 | 48 ft | 4 kts | 303° |
| 2026-05-06 18:51 | -37.93370 | -57.57991 | 45 ft | 3 kts | 303° |
| 2026-05-06 18:51 | -37.93373 | -57.57987 | 46 ft | 1 kts | 303° |
| 2026-05-06 18:53 | -37.93364 | -57.58003 | 46 ft | 5 kts | 303° |
| 2026-05-06 18:53 | -37.93327 | -57.58024 | 47 ft | 7 kts | 0° |
| 2026-05-06 18:53 | -37.93267 | -57.58035 | 48 ft | 10 kts | 341° |
| 2026-05-06 18:54 | -37.93197 | -57.58012 | 48 ft | 8 kts | 31° |
| 2026-05-06 18:54 | -37.93140 | -57.57968 | 46 ft | 12 kts | 31° |
| 2026-05-06 18:54 | -37.93078 | -57.57996 | 44 ft | 12 kts | 297° |
| 2026-05-06 18:54 | -37.93029 | -57.58095 | 45 ft | 15 kts | 302° |
| 2026-05-06 18:55 | -37.92967 | -57.58218 | 44 ft | 18 kts | 302° |
| 2026-05-06 18:55 | -37.92922 | -57.58361 | 41 ft | 15 kts | 300° |
| 2026-05-06 18:55 | -37.92909 | -57.58332 | 42 ft | 8 kts | 135° |
| 2026-05-06 18:55 | -37.92920 | -57.58310 | 41 ft | 0 kts | 122° |
| 2026-05-06 19:02 | -37.92941 | -57.58268 | 42 ft | 27 kts | 122° |
| 2026-05-06 19:03 | -37.93174 | -57.57810 | 44 ft | 92 kts | 122° |
| 2026-05-06 19:03 | -37.93613 | -57.56944 | 48 ft | 140 kts | 122° |
| 2026-05-06 19:03 | -37.94179 | -57.55845 | 461 ft | 151 kts | 118° |
| 2026-05-06 19:03 | -37.94799 | -57.54752 | 1115 ft | 154 kts | 118° |
| 2026-05-06 19:04 | -37.95468 | -57.53673 | 1646 ft | 166 kts | 118° |
| 2026-05-06 19:04 | -37.96241 | -57.52480 | 2071 ft | 183 kts | 122° |
| 2026-05-06 19:04 | -37.97107 | -57.51212 | 2605 ft | 197 kts | 124° |
| 2026-05-06 19:04 | -37.97957 | -57.49766 | 3005 ft | 213 kts | 115° |
| 2026-05-06 19:05 | -37.98945 | -57.48248 | 3539 ft | 238 kts | 141° |
| 2026-05-06 19:05 | -38.00585 | -57.47643 | 4258 ft | 261 kts | 178° |
| 2026-05-06 19:05 | -38.02388 | -57.48326 | 4868 ft | 286 kts | 204° |
| 2026-05-06 19:05 | -38.04143 | -57.49641 | 5642 ft | 298 kts | 213° |
| 2026-05-06 19:06 | -38.05859 | -57.51176 | 6494 ft | 306 kts | 217° |
| 2026-05-06 19:06 | -38.07584 | -57.52796 | 7370 ft | 309 kts | 219° |
| 2026-05-06 19:06 | -38.09318 | -57.54418 | 8368 ft | 310 kts | 219° |
| 2026-05-06 19:06 | -38.11034 | -57.56000 | 9379 ft | 308 kts | 224° |
| 2026-05-06 19:07 | -38.12487 | -57.57932 | 10282 ft | 299 kts | 242° |
| 2026-05-06 19:07 | -38.13418 | -57.60239 | 11154 ft | 290 kts | 258° |
| 2026-05-06 19:07 | -38.13799 | -57.62706 | 12020 ft | 282 kts | 273° |
| 2026-05-06 19:07 | -38.13643 | -57.65153 | 12906 ft | 276 kts | 285° |
| 2026-05-06 19:08 | -38.13246 | -57.67568 | 13503 ft | 289 kts | 285° |
| 2026-05-06 19:08 | -38.12815 | -57.70169 | 13680 ft | 311 kts | 285° |
| 2026-05-06 19:08 | -38.12362 | -57.72921 | 14070 ft | 323 kts | 285° |
| 2026-05-06 19:08 | -38.11907 | -57.75731 | 14684 ft | 327 kts | 284° |
| 2026-05-06 19:09 | -38.11448 | -57.78573 | 15354 ft | 330 kts | 284° |
| 2026-05-06 19:09 | -38.10990 | -57.81400 | 16036 ft | 332 kts | 284° |
| 2026-05-06 19:09 | -38.10522 | -57.84277 | 16695 ft | 334 kts | 284° |
| 2026-05-06 19:09 | -38.10049 | -57.87179 | 17357 ft | 337 kts | 284° |
| 2026-05-06 19:10 | -38.09572 | -57.90099 | 18019 ft | 339 kts | 284° |
| 2026-05-06 19:10 | -38.09089 | -57.93048 | 18629 ft | 342 kts | 284° |
| 2026-05-06 19:10 | -38.08605 | -57.96006 | 19251 ft | 343 kts | 284° |
| 2026-05-06 19:10 | -38.08117 | -57.98988 | 19851 ft | 346 kts | 284° |
| 2026-05-06 19:11 | -38.07624 | -58.01984 | 20424 ft | 348 kts | 284° |
| 2026-05-06 19:11 | -38.07123 | -58.05006 | 20970 ft | 351 kts | 284° |
| 2026-05-06 19:11 | -38.06618 | -58.08047 | 21548 ft | 352 kts | 284° |
| 2026-05-06 19:11 | -38.06123 | -58.11039 | 22484 ft | 344 kts | 284° |
| 2026-05-06 19:12 | -38.05629 | -58.14006 | 23153 ft | 343 kts | 284° |
| 2026-05-06 19:12 | -38.05164 | -58.16987 | 23658 ft | 347 kts | 281° |
| 2026-05-06 19:12 | -38.05067 | -58.20070 | 24104 ft | 354 kts | 271° |
| 2026-05-06 19:12 | -38.05453 | -58.23151 | 24539 ft | 363 kts | 262° |
| 2026-05-06 19:13 | -38.06047 | -58.26277 | 24956 ft | 366 kts | 262° |
| 2026-05-06 19:13 | -38.06643 | -58.29423 | 25384 ft | 369 kts | 262° |
| 2026-05-06 19:13 | -38.07242 | -58.32599 | 25809 ft | 371 kts | 262° |
| 2026-05-06 19:13 | -38.07844 | -58.35802 | 26233 ft | 374 kts | 263° |
| 2026-05-06 19:14 | -38.08446 | -58.39018 | 26642 ft | 377 kts | 263° |
| 2026-05-06 19:14 | -38.09050 | -58.42268 | 27067 ft | 379 kts | 263° |
| 2026-05-06 19:14 | -38.09656 | -58.45538 | 27458 ft | 382 kts | 263° |
| 2026-05-06 19:14 | -38.10263 | -58.48826 | 27895 ft | 384 kts | 263° |
| 2026-05-06 19:15 | -38.10876 | -58.52138 | 28294 ft | 387 kts | 263° |
| 2026-05-06 19:15 | -38.11492 | -58.55479 | 28693 ft | 389 kts | 263° |
| 2026-05-06 19:15 | -38.12112 | -58.58837 | 29095 ft | 392 kts | 263° |
| 2026-05-06 19:15 | -38.12728 | -58.62171 | 29486 ft | 395 kts | 263° |
| 2026-05-06 19:16 | -38.13356 | -58.65582 | 29771 ft | 397 kts | 263° |
| 2026-05-06 19:16 | -38.14634 | -58.72564 | 29815 ft | 417 kts | 263° |
| 2026-05-06 19:17 | -38.15977 | -58.79906 | 29812 ft | 431 kts | 263° |
| 2026-05-06 19:17 | -38.17342 | -58.87344 | 29808 ft | 433 kts | 263° |
| 2026-05-06 19:18 | -38.18690 | -58.94749 | 29809 ft | 433 kts | 263° |
| 2026-05-06 19:18 | -38.20037 | -59.02203 | 29808 ft | 433 kts | 263° |
| 2026-05-06 19:19 | -38.21382 | -59.09740 | 29807 ft | 440 kts | 264° |
| 2026-05-06 19:19 | -38.22745 | -59.17329 | 29796 ft | 441 kts | 264° |
| 2026-05-06 19:20 | -38.24113 | -59.24939 | 29796 ft | 441 kts | 263° |
| 2026-05-06 19:20 | -38.25477 | -59.32564 | 29817 ft | 442 kts | 264° |
| 2026-05-06 19:21 | -38.26827 | -59.40199 | 29794 ft | 443 kts | 264° |
| 2026-05-06 19:21 | -38.28170 | -59.47854 | 29794 ft | 443 kts | 264° |
| 2026-05-06 19:22 | -38.29509 | -59.55462 | 29788 ft | 443 kts | 264° |
| 2026-05-06 19:22 | -38.30852 | -59.63112 | 29791 ft | 443 kts | 264° |
| 2026-05-06 19:23 | -38.32189 | -59.70761 | 29784 ft | 443 kts | 264° |
| 2026-05-06 19:23 | -38.33516 | -59.78412 | 29779 ft | 443 kts | 264° |
| 2026-05-06 19:24 | -38.34840 | -59.86078 | 29778 ft | 443 kts | 264° |
| 2026-05-06 19:24 | -38.36142 | -59.93671 | 29769 ft | 441 kts | 265° |
| 2026-05-06 19:25 | -38.37444 | -60.01296 | 29775 ft | 440 kts | 265° |
| 2026-05-06 19:25 | -38.38747 | -60.08920 | 29769 ft | 440 kts | 265° |
| 2026-05-06 19:26 | -38.40045 | -60.16551 | 29766 ft | 440 kts | 265° |
| 2026-05-06 19:26 | -38.41326 | -60.24127 | 29762 ft | 435 kts | 265° |
| 2026-05-06 19:26 | -38.41958 | -60.27826 | 29494 ft | 421 kts | 265° |
| 2026-05-06 19:27 | -38.42573 | -60.31427 | 29019 ft | 411 kts | 265° |
| 2026-05-06 19:27 | -38.43174 | -60.34969 | 28410 ft | 406 kts | 265° |
| 2026-05-06 19:27 | -38.43761 | -60.38470 | 27808 ft | 402 kts | 265° |
| 2026-05-06 19:27 | -38.44340 | -60.41941 | 27179 ft | 399 kts | 265° |
| 2026-05-06 19:28 | -38.44916 | -60.45389 | 26556 ft | 395 kts | 265° |
| 2026-05-06 19:28 | -38.45483 | -60.48802 | 25969 ft | 392 kts | 265° |
| 2026-05-06 19:28 | -38.46046 | -60.52194 | 25358 ft | 390 kts | 265° |
| 2026-05-06 19:28 | -38.46603 | -60.55570 | 24770 ft | 387 kts | 265° |
| 2026-05-06 19:29 | -38.47147 | -60.58873 | 24228 ft | 385 kts | 265° |
| 2026-05-06 19:29 | -38.47697 | -60.62206 | 23658 ft | 383 kts | 265° |
| 2026-05-06 19:29 | -38.48243 | -60.65515 | 23065 ft | 381 kts | 265° |
| 2026-05-06 19:29 | -38.48786 | -60.68811 | 22504 ft | 379 kts | 265° |
| 2026-05-06 19:30 | -38.49328 | -60.72100 | 22000 ft | 378 kts | 265° |
| 2026-05-06 19:30 | -38.49865 | -60.75367 | 21532 ft | 375 kts | 264° |
| 2026-05-06 19:30 | -38.50398 | -60.78626 | 21061 ft | 375 kts | 264° |
| 2026-05-06 19:30 | -38.50929 | -60.81872 | 20575 ft | 373 kts | 264° |
| 2026-05-06 19:31 | -38.51450 | -60.85059 | 20116 ft | 371 kts | 264° |
| 2026-05-06 19:31 | -38.51973 | -60.88274 | 19650 ft | 368 kts | 264° |
| 2026-05-06 19:31 | -38.53005 | -60.94647 | 18772 ft | 365 kts | 264° |
| 2026-05-06 19:32 | -38.53517 | -60.97812 | 18349 ft | 363 kts | 264° |
| 2026-05-06 19:32 | -38.53876 | -61.00967 | 17917 ft | 355 kts | 274° |
| 2026-05-06 19:32 | -38.53692 | -61.04065 | 17440 ft | 348 kts | 282° |
| 2026-05-06 19:32 | -38.53392 | -61.07131 | 16997 ft | 348 kts | 281° |
| 2026-05-06 19:33 | -38.53095 | -61.10194 | 16534 ft | 347 kts | 281° |
| 2026-05-06 19:33 | -38.52808 | -61.13199 | 16089 ft | 345 kts | 281° |
| 2026-05-06 19:33 | -38.52518 | -61.16230 | 15641 ft | 343 kts | 280° |
| 2026-05-06 19:33 | -38.52227 | -61.19246 | 15197 ft | 341 kts | 280° |
| 2026-05-06 19:34 | -38.51939 | -61.22239 | 14762 ft | 339 kts | 280° |
| 2026-05-06 19:34 | -38.51651 | -61.25216 | 14333 ft | 336 kts | 280° |
| 2026-05-06 19:34 | -38.51366 | -61.28164 | 13911 ft | 333 kts | 279° |
| 2026-05-06 19:34 | -38.51080 | -61.31085 | 13487 ft | 331 kts | 279° |
| 2026-05-06 19:35 | -38.50794 | -61.33999 | 13018 ft | 329 kts | 278° |
| 2026-05-06 19:35 | -38.50509 | -61.36858 | 12562 ft | 329 kts | 279° |
| 2026-05-06 19:35 | -38.50221 | -61.39746 | 12098 ft | 328 kts | 279° |
| 2026-05-06 19:35 | -38.49937 | -61.42619 | 11650 ft | 324 kts | 278° |
| 2026-05-06 19:36 | -38.49659 | -61.45462 | 11197 ft | 322 kts | 278° |
| 2026-05-06 19:36 | -38.49384 | -61.48276 | 10764 ft | 317 kts | 278° |
| 2026-05-06 19:36 | -38.49109 | -61.51059 | 10330 ft | 316 kts | 278° |
| 2026-05-06 19:36 | -38.48833 | -61.53836 | 9905 ft | 315 kts | 278° |
| 2026-05-06 19:37 | -38.48556 | -61.56599 | 9468 ft | 313 kts | 277° |
| 2026-05-06 19:37 | -38.48285 | -61.59323 | 9004 ft | 313 kts | 278° |
| 2026-05-06 19:37 | -38.48010 | -61.62057 | 8550 ft | 309 kts | 278° |
| 2026-05-06 19:37 | -38.47826 | -61.63887 | 8256 ft | 306 kts | 277° |
| 2026-05-06 19:38 | -38.47469 | -61.67433 | 7691 ft | 301 kts | 278° |
| 2026-05-06 19:38 | -38.47227 | -61.70071 | 7274 ft | 298 kts | 273° |
| 2026-05-06 19:38 | -38.47402 | -61.72691 | 6862 ft | 296 kts | 260° |
| 2026-05-06 19:38 | -38.47801 | -61.75260 | 6458 ft | 294 kts | 261° |
| 2026-05-06 19:39 | -38.48191 | -61.77802 | 6068 ft | 291 kts | 260° |
| 2026-05-06 19:39 | -38.48579 | -61.80333 | 5664 ft | 289 kts | 260° |
| 2026-05-06 19:39 | -38.48960 | -61.82804 | 5320 ft | 285 kts | 261° |
| 2026-05-06 19:39 | -38.49337 | -61.85270 | 4971 ft | 282 kts | 261° |
| 2026-05-06 19:40 | -38.49709 | -61.87711 | 4621 ft | 278 kts | 261° |
| 2026-05-06 19:40 | -38.50075 | -61.90116 | 4325 ft | 274 kts | 261° |
| 2026-05-06 19:40 | -38.50436 | -61.92485 | 4037 ft | 270 kts | 260° |
| 2026-05-06 19:40 | -38.50797 | -61.94834 | 3727 ft | 268 kts | 261° |
| 2026-05-06 19:41 | -38.51152 | -61.97158 | 3429 ft | 266 kts | 261° |
| 2026-05-06 19:41 | -38.51502 | -61.99469 | 3154 ft | 263 kts | 262° |
| 2026-05-06 19:41 | -38.51847 | -62.01743 | 2909 ft | 259 kts | 262° |
| 2026-05-06 19:41 | -38.52185 | -62.03974 | 2746 ft | 252 kts | 265° |
| 2026-05-06 19:42 | -38.52507 | -62.06108 | 2704 ft | 237 kts | 262° |
| 2026-05-06 19:42 | -38.52811 | -62.08100 | 2709 ft | 221 kts | 263° |
| 2026-05-06 19:42 | -38.53099 | -62.09981 | 2733 ft | 212 kts | 266° |
| 2026-05-06 19:42 | -38.53391 | -62.11790 | 2724 ft | 211 kts | 261° |
| 2026-05-06 19:43 | -38.53791 | -62.13506 | 2647 ft | 192 kts | 258° |
| 2026-05-06 19:43 | -38.54159 | -62.15109 | 2292 ft | 187 kts | 259° |
| 2026-05-06 19:43 | -38.54513 | -62.16664 | 2159 ft | 180 kts | 260° |
| 2026-05-06 19:43 | -38.54861 | -62.18198 | 2156 ft | 180 kts | 261° |
| 2026-05-06 19:44 | -38.55265 | -62.19724 | 2154 ft | 183 kts | 245° |
| 2026-05-06 19:44 | -38.56185 | -62.20827 | 2162 ft | 185 kts | 205° |
| 2026-05-06 19:44 | -38.57415 | -62.21030 | 2164 ft | 177 kts | 163° |
| 2026-05-06 19:44 | -38.58559 | -62.20626 | 2159 ft | 171 kts | 158° |
| 2026-05-06 19:45 | -38.59695 | -62.20200 | 2162 ft | 170 kts | 158° |
| 2026-05-06 19:45 | -38.60829 | -62.19776 | 2148 ft | 170 kts | 157° |
| 2026-05-06 19:45 | -38.61963 | -62.19353 | 2015 ft | 170 kts | 156° |
| 2026-05-06 19:45 | -38.63093 | -62.18933 | 1840 ft | 168 kts | 156° |
| 2026-05-06 19:46 | -38.64206 | -62.18519 | 1647 ft | 165 kts | 156° |
| 2026-05-06 19:46 | -38.65303 | -62.18111 | 1452 ft | 163 kts | 156° |
| 2026-05-06 19:46 | -38.66384 | -62.17708 | 1263 ft | 161 kts | 156° |
| 2026-05-06 19:46 | -38.67432 | -62.17318 | 1108 ft | 157 kts | 159° |
| 2026-05-06 19:47 | -38.68493 | -62.16922 | 912 ft | 159 kts | 157° |
| 2026-05-06 19:47 | -38.69546 | -62.16528 | 710 ft | 156 kts | 157° |
| 2026-05-06 19:47 | -38.70567 | -62.16155 | 489 ft | 148 kts | 158° |
| 2026-05-06 19:47 | -38.71517 | -62.15812 | 343 ft | 137 kts | 154° |
| 2026-05-06 19:48 | -38.72377 | -62.15487 | 271 ft | 117 kts | 154° |
| 2026-05-06 19:48 | -38.72883 | -62.15290 | 255 ft | 44 kts | 160° |
| 2026-05-06 19:48 | -38.73157 | -62.15177 | 255 ft | 37 kts | 163° |
| 2026-05-06 19:48 | -38.73325 | -62.15151 | 257 ft | 19 kts | 215° |
| 2026-05-06 19:49 | -38.73410 | -62.15186 | 258 ft | 14 kts | 188° |
| 2026-05-06 19:49 | -38.73508 | -62.15240 | 257 ft | 17 kts | 243° |
| 2026-05-06 19:49 | -38.73435 | -62.15331 | 257 ft | 19 kts | 345° |
| 2026-05-06 19:49 | -38.73299 | -62.15381 | 257 ft | 21 kts | 342° |
| 2026-05-06 19:50 | -38.73151 | -62.15434 | 257 ft | 23 kts | 345° |
| 2026-05-06 19:50 | -38.73007 | -62.15500 | 257 ft | 17 kts | 312° |
| 2026-05-06 19:50 | -38.72993 | -62.15642 | 257 ft | 17 kts | 269° |
| 2026-05-06 19:50 | -38.72996 | -62.15792 | 257 ft | 17 kts | 269° |
| 2026-05-06 19:51 | -38.72930 | -62.15849 | 257 ft | 13 kts | 13° |
| 2026-05-06 19:51 | -38.72828 | -62.15837 | 257 ft | 17 kts | 5° |
| 2026-05-06 19:51 | -38.72707 | -62.15823 | 257 ft | 18 kts | 5° |
| 2026-05-06 19:51 | -38.72586 | -62.15808 | 257 ft | 17 kts | 6° |
| 2026-05-06 19:52 | -38.72468 | -62.15792 | 257 ft | 17 kts | 6° |
| 2026-05-06 19:52 | -38.72357 | -62.15798 | 257 ft | 16 kts | 346° |
| 2026-05-06 19:52 | -38.72256 | -62.15837 | 256 ft | 15 kts | 343° |
| 2026-05-06 19:52 | -38.72163 | -62.15872 | 256 ft | 13 kts | 343° |
| 2026-05-06 19:53 | -38.72078 | -62.15905 | 257 ft | 12 kts | 343° |
| 2026-05-06 19:53 | -38.72002 | -62.15934 | 257 ft | 11 kts | 343° |
| 2026-05-06 19:53 | -38.71934 | -62.15960 | 256 ft | 11 kts | 344° |
| 2026-05-06 19:53 | -38.71844 | -62.15993 | 257 ft | 16 kts | 344° |
| 2026-05-06 19:54 | -38.71725 | -62.16036 | 257 ft | 19 kts | 344° |
| 2026-05-06 19:54 | -38.71652 | -62.16103 | 257 ft | 11 kts | 281° |
| 2026-05-06 19:54 | -38.71644 | -62.16196 | 257 ft | 10 kts | 276° |
| 2026-05-06 19:54 | -38.71642 | -62.16281 | 257 ft | 9 kts | 264° |
| 2026-05-06 19:55 | -38.71642 | -62.16306 | 257 ft | 0 kts | 273° |
| 2026-05-06 19:55 | -38.71642 | -62.16307 | 257 ft | 0 kts | 272° |